createdAt,value
2022-12-23T00:00:20.147Z,6.00
2022-12-23T00:02:48.384Z,5.90
2022-12-23T00:05:16.687Z,6.00
2022-12-23T00:07:45.489Z,5.90
2022-12-23T00:10:13.886Z,5.90
2022-12-23T00:12:59.199Z,6.00
2022-12-23T00:15:28.718Z,5.90
2022-12-23T00:17:56.984Z,6.10
2022-12-23T00:20:25.217Z,6.10
2022-12-23T00:23:07.240Z,6.20
2022-12-23T00:25:44.923Z,6.40
2022-12-23T00:28:15.696Z,6.50
2022-12-23T00:30:50.383Z,6.60
2022-12-23T00:33:20.378Z,6.90
2022-12-23T00:35:48.708Z,6.90
2022-12-23T00:38:17.598Z,6.90
2022-12-23T00:41:03.068Z,6.90
2022-12-23T00:43:31.130Z,6.90
2022-12-23T00:46:00.679Z,7.00
2022-12-23T00:48:46.199Z,6.90
2022-12-23T00:51:14.318Z,6.90
2022-12-23T00:53:42.466Z,7.00
2022-12-23T00:56:10.629Z,7.00
2022-12-23T00:58:38.735Z,7.00
2022-12-23T01:01:25.826Z,7.00
2022-12-23T01:04:22.881Z,7.10
2022-12-23T01:06:50.949Z,7.10
2022-12-23T01:09:19.003Z,7.10
2022-12-23T01:11:47.113Z,7.10
2022-12-23T01:14:15.220Z,7.10
2022-12-23T01:16:45.839Z,7.20
2022-12-23T01:19:14.039Z,7.10
2022-12-23T01:21:42.195Z,7.10
2022-12-23T01:24:10.365Z,7.10
2022-12-23T01:26:38.505Z,7.10
2022-12-23T01:29:06.616Z,7.10
2022-12-23T01:31:34.716Z,7.00
2022-12-23T01:34:04.278Z,7.10
2022-12-23T01:36:32.558Z,7.10
2022-12-23T01:39:00.621Z,7.10
2022-12-23T01:41:56.961Z,7.10
2022-12-23T01:44:50.855Z,7.00
2022-12-23T01:47:24.966Z,7.10
2022-12-23T01:49:57.727Z,7.10
2022-12-23T01:52:26.389Z,7.00
2022-12-23T01:54:55.524Z,7.00
2022-12-23T01:57:24.846Z,7.00
2022-12-23T02:00:11.068Z,7.00
2022-12-23T02:02:58.249Z,7.30
2022-12-23T02:05:28.123Z,6.90
2022-12-23T02:08:14.417Z,6.90
2022-12-23T02:11:02.263Z,6.90
2022-12-23T02:13:38.080Z,6.90
2022-12-23T02:16:18.539Z,6.90
2022-12-23T02:19:01.911Z,6.90
2022-12-23T02:21:50.057Z,6.90
2022-12-23T02:24:57.217Z,6.90
2022-12-23T02:27:29.736Z,6.80
2022-12-23T02:30:43.541Z,6.90
2022-12-23T02:33:35.667Z,6.90
2022-12-23T02:36:18.151Z,6.80
2022-12-23T02:38:52.487Z,6.90
2022-12-23T02:41:29.508Z,6.70
2022-12-23T02:44:01.356Z,6.80
2022-12-23T02:46:34.922Z,6.90
2022-12-23T02:49:09.576Z,6.80
2022-12-23T02:51:41.633Z,6.90
2022-12-23T02:54:14.160Z,6.80
2022-12-23T02:56:46.192Z,6.90
2022-12-23T02:59:20.818Z,6.90
2022-12-23T03:01:52.986Z,7.00
2022-12-23T03:04:21.294Z,6.90
2022-12-23T03:06:53.359Z,6.90
2022-12-23T03:09:29.912Z,6.90
2022-12-23T03:12:05.693Z,6.90
2022-12-23T03:14:51.469Z,6.90
2022-12-23T03:17:37.266Z,6.90
2022-12-23T03:20:14.717Z,6.90
2022-12-23T03:22:49.810Z,7.00
2022-12-23T03:25:24.410Z,7.00
2022-12-23T03:27:58.376Z,7.00
2022-12-23T03:30:27.229Z,7.00
2022-12-23T03:33:00.636Z,7.00
2022-12-23T03:35:34.529Z,7.00
2022-12-23T03:38:05.068Z,7.00
2022-12-23T03:40:37.295Z,7.00
2022-12-23T03:43:09.276Z,7.10
2022-12-23T03:45:42.437Z,7.00
2022-12-23T03:48:18.226Z,7.00
2022-12-23T03:50:49.866Z,7.00
2022-12-23T03:53:22.933Z,7.00
2022-12-23T03:55:56.256Z,7.10
2022-12-23T03:58:35.135Z,7.10
2022-12-23T04:01:18.392Z,7.10
2022-12-23T04:03:57.475Z,7.20
2022-12-23T04:06:28.421Z,7.20
2022-12-23T04:08:58.085Z,7.10
2022-12-23T04:11:26.556Z,7.10
2022-12-23T04:14:18.456Z,7.00
2022-12-23T04:17:06.559Z,7.10
2022-12-23T04:19:56.693Z,6.90
2022-12-23T04:22:45.235Z,6.90
2022-12-23T04:25:33.377Z,6.90
2022-12-23T04:28:21.574Z,7.00
2022-12-23T04:31:09.779Z,7.00
2022-12-23T04:33:41.870Z,7.10
2022-12-23T04:36:31.326Z,7.00
2022-12-23T04:39:19.397Z,7.10
2022-12-23T04:41:47.427Z,7.10
2022-12-23T04:44:15.422Z,7.20
2022-12-23T04:46:43.639Z,7.20
2022-12-23T04:49:11.748Z,7.30
2022-12-23T04:51:41.223Z,7.70
2022-12-23T04:54:09.150Z,7.70
2022-12-23T04:56:37.175Z,7.20
2022-12-23T04:59:05.110Z,7.30
2022-12-23T05:01:33.104Z,7.20
2022-12-23T05:04:01.144Z,7.20
2022-12-23T05:06:29.046Z,7.20
2022-12-23T05:08:58.372Z,7.30
2022-12-23T05:11:26.487Z,8.60
2022-12-23T05:13:54.460Z,7.40
2022-12-23T05:16:22.515Z,7.40
2022-12-23T05:18:50.445Z,7.30
2022-12-23T05:21:18.556Z,7.40
2022-12-23T05:23:46.448Z,8.40
2022-12-23T05:26:15.824Z,7.50
2022-12-23T05:28:45.546Z,7.50
2022-12-23T05:31:14.808Z,7.50
2022-12-23T05:33:42.892Z,7.60
2022-12-23T05:36:11.996Z,7.60
2022-12-23T05:38:40.148Z,7.70
2022-12-23T05:41:08.554Z,7.80
2022-12-23T05:43:37.987Z,7.90
2022-12-23T05:46:06.301Z,7.80
2022-12-23T05:48:34.521Z,7.70
2022-12-23T05:51:02.521Z,7.70
2022-12-23T05:53:30.473Z,7.80
2022-12-23T05:55:58.597Z,8.10
2022-12-23T05:58:28.152Z,9.00
2022-12-23T06:00:57.539Z,7.80
2022-12-23T06:03:25.953Z,9.00
2022-12-23T06:05:54.577Z,8.00
2022-12-23T06:08:22.853Z,7.90
2022-12-23T06:10:50.966Z,8.00
2022-12-23T06:13:19.190Z,7.90
2022-12-23T06:15:48.595Z,7.90
2022-12-23T06:18:18.486Z,7.80
2022-12-23T06:20:47.933Z,8.00
2022-12-23T06:23:16.084Z,8.00
2022-12-23T06:25:44.288Z,8.10
2022-12-23T06:28:12.405Z,8.10
2022-12-23T06:30:40.558Z,8.20
2022-12-23T06:33:08.725Z,8.30
2022-12-23T06:35:38.314Z,8.30
2022-12-23T06:38:11.658Z,8.30
2022-12-23T06:40:40.350Z,8.30
2022-12-23T06:43:08.461Z,8.50
2022-12-23T06:45:36.613Z,8.60
2022-12-23T06:48:05.106Z,8.50
2022-12-23T06:50:33.260Z,8.60
2022-12-23T06:53:02.781Z,8.50
2022-12-23T06:55:30.881Z,8.50
2022-12-23T06:57:59.036Z,8.60
2022-12-23T07:00:27.195Z,8.40
2022-12-23T07:02:55.621Z,8.30
2022-12-23T07:05:23.931Z,8.40
2022-12-23T07:07:52.042Z,8.40
2022-12-23T07:10:21.602Z,8.40
2022-12-23T07:12:51.007Z,8.40
2022-12-23T07:15:19.451Z,8.40
2022-12-23T07:17:47.586Z,8.40
2022-12-23T07:20:15.770Z,8.40
2022-12-23T07:22:43.915Z,8.30
2022-12-23T07:25:12.005Z,8.40
2022-12-23T07:27:41.521Z,8.30
2022-12-23T07:30:10.720Z,8.50
2022-12-23T07:32:38.839Z,8.40
2022-12-23T07:35:07.842Z,8.50
2022-12-23T07:37:35.948Z,8.50
2022-12-23T07:40:08.591Z,8.60
2022-12-23T07:42:46.458Z,8.70
2022-12-23T07:45:16.855Z,8.70
2022-12-23T07:47:45.109Z,8.60
2022-12-23T07:50:13.826Z,8.60
2022-12-23T07:52:41.971Z,8.60
2022-12-23T07:55:10.558Z,8.60
2022-12-23T07:57:39.973Z,8.60
2022-12-23T08:00:09.845Z,8.60
2022-12-23T08:02:39.539Z,8.70
2022-12-23T08:05:09.090Z,8.70
2022-12-23T08:07:37.790Z,8.70
2022-12-23T08:10:06.982Z,8.70
2022-12-23T08:12:35.864Z,8.80
2022-12-23T08:15:04.165Z,8.70
2022-12-23T08:17:32.485Z,8.60
2022-12-23T08:20:02.025Z,8.70
2022-12-23T08:22:32.356Z,8.80
2022-12-23T08:25:00.625Z,8.90
2022-12-23T08:27:28.827Z,8.90
2022-12-23T08:29:57.068Z,8.90
2022-12-23T08:32:28.112Z,8.80
2022-12-23T08:34:58.001Z,8.90
2022-12-23T08:37:27.615Z,8.90
2022-12-23T08:39:55.776Z,9.00
2022-12-23T08:42:23.944Z,9.00
2022-12-23T08:44:52.101Z,9.10
2022-12-23T08:47:20.244Z,9.10
2022-12-23T08:49:49.609Z,9.10
2022-12-23T08:52:17.760Z,9.20
2022-12-23T08:54:47.410Z,9.20
2022-12-23T08:57:15.523Z,9.10
2022-12-23T08:59:43.663Z,9.10
2022-12-23T09:02:12.808Z,9.10
2022-12-23T09:04:41.073Z,9.00
2022-12-23T09:07:09.170Z,9.10
2022-12-23T09:09:38.772Z,9.20
2022-12-23T09:12:08.581Z,9.10
2022-12-23T09:14:36.799Z,9.30
2022-12-23T09:17:05.298Z,9.10
2022-12-23T09:19:33.605Z,9.20
2022-12-23T09:22:01.864Z,9.20
2022-12-23T09:24:30.042Z,9.20
2022-12-23T09:26:58.204Z,9.20
2022-12-23T09:29:27.749Z,9.20
2022-12-23T09:31:55.997Z,9.30
2022-12-23T09:34:24.190Z,9.20
2022-12-23T09:36:55.473Z,9.30
2022-12-23T09:39:24.360Z,9.30
2022-12-23T09:42:06.366Z,9.30
2022-12-23T09:44:57.315Z,9.30
2022-12-23T09:47:27.986Z,9.40
2022-12-23T09:50:00.673Z,9.30
2022-12-23T09:52:37.574Z,9.40
2022-12-23T09:55:09.955Z,9.50
2022-12-23T09:57:47.129Z,9.50
2022-12-23T10:00:19.066Z,9.50
2022-12-23T10:03:02.355Z,9.50
2022-12-23T10:05:40.646Z,9.50
2022-12-23T10:08:13.771Z,9.50
2022-12-23T10:10:46.310Z,9.50
2022-12-23T10:13:25.078Z,9.50
2022-12-23T10:15:57.847Z,9.50
2022-12-23T10:18:41.238Z,9.60
2022-12-23T10:21:15.562Z,9.60
2022-12-23T10:23:48.144Z,9.60
2022-12-23T10:26:22.861Z,9.60
2022-12-23T10:28:55.340Z,9.60
2022-12-23T10:31:41.467Z,9.60
2022-12-23T10:34:18.670Z,9.60
2022-12-23T10:36:54.727Z,9.50
2022-12-23T10:39:31.330Z,9.60
2022-12-23T10:42:09.629Z,9.70
2022-12-23T10:45:03.455Z,9.70
2022-12-23T10:47:47.827Z,9.90
2022-12-23T10:50:30.898Z,9.90
2022-12-23T10:53:03.215Z,10.00
2022-12-23T10:55:35.611Z,10.00
2022-12-23T10:58:08.682Z,10.10
2022-12-23T11:00:42.023Z,10.10
2022-12-23T11:03:19.326Z,10.20
2022-12-23T11:05:50.043Z,10.20
2022-12-23T11:08:19.507Z,10.30
2022-12-23T11:10:48.367Z,10.20
2022-12-23T11:13:26.337Z,10.20
2022-12-23T11:15:54.787Z,10.20
2022-12-23T13:10:36.559Z,10.20
2022-12-23T13:16:14.196Z,10.40
2022-12-23T13:22:01.674Z,10.40
2022-12-23T13:27:29.538Z,10.30
2022-12-23T13:30:21.356Z,10.30
2022-12-23T13:55:48.258Z,10.30
2022-12-23T13:58:19.312Z,10.20
2022-12-23T14:00:47.611Z,10.20
2022-12-23T14:03:24.836Z,10.20
2022-12-23T14:05:54.246Z,10.30
2022-12-23T14:08:26.846Z,10.20
2022-12-23T14:11:01.360Z,10.20
2022-12-23T14:13:32.410Z,10.20
2022-12-23T14:16:26.225Z,10.20
2022-12-23T14:19:20.118Z,10.20
2022-12-23T14:21:58.839Z,10.20
2022-12-23T14:24:44.670Z,10.20
2022-12-23T14:27:32.030Z,10.20
2022-12-23T14:30:10.752Z,10.20
2022-12-23T14:32:49.092Z,10.10
2022-12-23T14:35:24.736Z,10.10
2022-12-23T14:38:23.549Z,10.20
2022-12-23T14:41:15.107Z,10.20
2022-12-23T14:43:58.244Z,10.30
2022-12-23T14:47:00.393Z,10.20
2022-12-23T14:49:41.540Z,10.20
2022-12-23T14:52:49.275Z,10.20
2022-12-23T14:55:47.103Z,10.20
2022-12-23T14:58:59.177Z,10.10
2022-12-23T15:01:33.215Z,10.20
2022-12-23T15:04:08.892Z,10.60
2022-12-23T15:06:40.531Z,10.20
2022-12-23T15:09:10.648Z,10.40
2022-12-23T15:11:41.161Z,10.20
2022-12-23T15:14:17.519Z,10.20
2022-12-23T15:16:46.511Z,10.20
2022-12-23T15:19:23.680Z,11.80
2022-12-23T15:22:01.985Z,10.20
2022-12-23T15:24:33.728Z,10.50
2022-12-23T15:27:26.023Z,10.20
2022-12-23T15:29:53.761Z,11.80
2022-12-23T15:32:24.295Z,10.20
2022-12-23T15:34:53.865Z,10.20
2022-12-23T15:37:28.548Z,12.50
2022-12-23T15:40:06.541Z,12.30
2022-12-23T15:42:39.902Z,10.60
2022-12-23T15:45:30.911Z,10.20
2022-12-23T15:47:59.006Z,10.20
2022-12-23T15:50:28.392Z,10.20
2022-12-23T15:52:59.043Z,10.20
2022-12-23T15:55:32.132Z,10.40
2022-12-23T15:58:01.777Z,10.20
2022-12-23T16:00:39.231Z,10.20
2022-12-23T16:03:13.799Z,10.30
2022-12-23T16:05:44.912Z,10.30
2022-12-23T16:08:29.094Z,10.30
2022-12-23T16:11:06.755Z,10.20
2022-12-23T16:13:35.165Z,10.30
2022-12-23T16:16:35.309Z,10.30
2022-12-23T16:19:03.721Z,10.30
2022-12-23T16:21:35.175Z,10.40
2022-12-23T16:24:08.334Z,10.20
2022-12-23T16:26:41.818Z,10.30
2022-12-23T16:29:11.454Z,11.60
2022-12-23T16:31:48.214Z,10.50
2022-12-23T16:34:20.355Z,11.50
2022-12-23T16:36:48.543Z,11.00
2022-12-23T16:39:21.671Z,10.30
2022-12-23T16:41:50.629Z,10.30
2022-12-23T16:44:18.855Z,10.30
2022-12-23T16:46:50.679Z,10.40
2022-12-23T16:49:20.548Z,10.30
2022-12-23T16:51:49.023Z,10.40
2022-12-23T16:54:19.220Z,10.40
2022-12-23T16:56:47.888Z,10.50
2022-12-23T16:59:16.319Z,11.60
2022-12-23T17:01:47.061Z,10.50
2022-12-23T17:04:16.965Z,10.60
2022-12-23T17:06:46.622Z,11.60
2022-12-23T17:09:15.047Z,10.40
2022-12-23T17:11:45.220Z,8.60
2022-12-23T17:14:17.924Z,10.50
2022-12-23T17:16:46.949Z,10.60
2022-12-23T17:19:19.254Z,10.70
2022-12-23T17:21:56.868Z,12.60
2022-12-23T17:24:26.530Z,11.70
2022-12-23T17:26:55.320Z,10.70
2022-12-23T17:29:23.886Z,10.70
2022-12-23T17:31:52.700Z,10.80
2022-12-23T17:34:24.008Z,10.80
2022-12-23T17:36:53.008Z,10.80
2022-12-23T17:39:21.816Z,10.90
2022-12-23T17:41:50.137Z,10.80
2022-12-23T17:44:19.136Z,10.80
2022-12-23T17:46:47.787Z,10.80
2022-12-23T17:49:16.033Z,10.80
2022-12-23T17:51:45.459Z,10.90
2022-12-23T17:54:23.168Z,11.60
2022-12-23T17:56:52.057Z,10.70
2022-12-23T17:59:21.072Z,10.80
2022-12-23T18:01:49.048Z,10.90
2022-12-23T18:04:17.027Z,10.90
2022-12-23T18:06:46.301Z,10.90
2022-12-23T18:09:14.213Z,11.10
2022-12-23T18:11:45.753Z,11.00
2022-12-23T18:14:17.590Z,11.10
2022-12-23T18:16:46.322Z,11.30
2022-12-23T18:19:18.141Z,11.10
2022-12-23T18:21:47.727Z,11.10
2022-12-23T18:24:15.834Z,11.10
2022-12-23T18:26:43.996Z,11.00
2022-12-23T18:29:12.028Z,11.00
2022-12-23T18:31:50.986Z,11.10
2022-12-23T18:34:19.756Z,11.10
2022-12-23T18:36:51.736Z,11.20
2022-12-23T18:39:20.153Z,11.10
2022-12-23T18:41:48.237Z,11.10
2022-12-23T18:44:19.220Z,11.10
2022-12-23T18:46:47.349Z,11.20
2022-12-23T18:49:15.423Z,11.10
2022-12-23T18:51:43.442Z,11.10
2022-12-23T18:54:15.129Z,11.10
2022-12-23T18:56:43.247Z,11.10
2022-12-23T18:59:17.199Z,11.20
2022-12-23T19:01:45.455Z,11.20
2022-12-23T19:04:13.841Z,11.20
2022-12-23T19:06:42.135Z,11.20
2022-12-23T19:09:18.108Z,11.20
2022-12-23T19:11:48.815Z,11.20
2022-12-23T19:14:16.888Z,11.30
2022-12-23T19:16:51.272Z,11.20
2022-12-23T19:19:20.481Z,11.20
2022-12-23T19:21:48.635Z,11.30
2022-12-23T19:24:18.220Z,11.30
2022-12-23T19:26:46.190Z,11.30
2022-12-23T19:29:14.279Z,11.30
2022-12-23T19:31:42.467Z,11.20
2022-12-23T19:34:15.004Z,11.50
2022-12-23T19:36:44.265Z,11.50
2022-12-23T19:39:16.090Z,11.40
2022-12-23T19:41:46.008Z,11.40
2022-12-23T19:44:14.140Z,11.40
2022-12-23T19:46:42.644Z,11.50
2022-12-23T19:49:17.559Z,11.40
2022-12-23T19:51:47.949Z,10.60
2022-12-23T19:54:15.911Z,11.20
2022-12-23T19:56:45.555Z,11.10
2022-12-23T19:59:13.721Z,11.10
2022-12-23T20:01:41.919Z,11.10
2022-12-23T20:04:11.107Z,11.10
2022-12-23T20:06:39.810Z,11.10
2022-12-23T20:09:08.895Z,11.20
2022-12-23T20:11:38.821Z,11.20
2022-12-23T20:14:09.183Z,11.20
2022-12-23T20:16:38.430Z,11.40
2022-12-23T20:19:06.813Z,11.30
2022-12-23T20:21:35.486Z,11.30
2022-12-23T20:24:03.472Z,11.30
2022-12-23T20:26:31.618Z,11.20
2022-12-23T20:29:00.109Z,11.10
2022-12-23T20:31:31.284Z,11.10
2022-12-23T20:33:59.735Z,11.10
2022-12-23T20:36:29.182Z,10.80
2022-12-23T20:38:57.758Z,10.70
2022-12-23T20:41:27.625Z,10.60
2022-12-23T20:46:45.122Z,10.40
2022-12-23T20:49:13.206Z,10.40
2022-12-23T20:51:41.241Z,10.40
2022-12-23T20:54:09.301Z,10.30
2022-12-23T20:56:37.326Z,10.20
2022-12-23T20:59:05.455Z,10.20
2022-12-23T21:01:35.268Z,10.50
2022-12-23T21:04:06.583Z,10.20
2022-12-23T21:06:35.332Z,10.20
2022-12-23T21:09:05.053Z,10.20
2022-12-23T21:11:36.282Z,10.20
2022-12-23T21:14:07.138Z,10.30
2022-12-23T21:16:36.605Z,10.30
2022-12-23T21:19:08.382Z,10.30
2022-12-23T21:21:37.862Z,10.40
2022-12-23T21:24:06.468Z,10.20
2022-12-23T21:26:35.813Z,10.20
2022-12-23T21:29:06.337Z,10.20
2022-12-23T21:31:36.639Z,10.30
2022-12-23T21:34:06.490Z,10.40
2022-12-23T21:36:37.411Z,10.40
2022-12-23T21:39:06.666Z,12.00
2022-12-23T21:41:37.160Z,10.30
2022-12-23T21:44:05.834Z,10.30
2022-12-23T21:46:33.985Z,10.40
2022-12-23T21:49:02.221Z,11.10
2022-12-23T21:51:39.587Z,10.30
2022-12-23T21:54:09.624Z,10.80
2022-12-23T21:56:38.167Z,10.20
2022-12-23T21:59:07.895Z,10.20
2022-12-23T22:01:35.892Z,10.00
2022-12-23T22:04:04.318Z,10.00
2022-12-23T22:06:36.687Z,9.90
2022-12-23T22:09:06.179Z,9.90
2022-12-23T22:11:36.468Z,9.80
2022-12-23T22:14:06.314Z,9.70
2022-12-23T22:16:35.430Z,9.80
2022-12-23T22:19:05.062Z,9.80
2022-12-23T22:21:35.369Z,9.80
2022-12-23T22:24:04.158Z,9.80
2022-12-23T22:26:33.955Z,9.90
2022-12-23T22:29:04.829Z,10.10
2022-12-23T22:31:36.501Z,10.20
2022-12-23T22:34:04.831Z,10.20
2022-12-23T22:36:34.873Z,10.30
2022-12-23T22:39:03.574Z,10.30
2022-12-23T22:41:32.057Z,10.90
2022-12-23T22:44:00.542Z,10.20
2022-12-23T22:46:29.368Z,10.40
2022-12-23T22:48:58.864Z,10.20
2022-12-23T22:51:29.580Z,10.20
2022-12-23T22:53:59.740Z,10.30
2022-12-23T22:56:28.177Z,10.30
2022-12-23T22:58:56.348Z,10.30
2022-12-23T23:01:26.779Z,10.30
2022-12-23T23:03:57.727Z,10.30
2022-12-23T23:06:26.766Z,10.40
2022-12-23T23:08:55.735Z,10.30
2022-12-23T23:11:26.140Z,10.40
2022-12-23T23:13:55.057Z,10.40
2022-12-23T23:16:24.314Z,10.40
2022-12-23T23:18:53.403Z,10.90
2022-12-23T23:21:22.028Z,10.40
2022-12-23T23:23:50.219Z,10.40
2022-12-23T23:26:19.073Z,10.40
2022-12-23T23:28:49.205Z,10.70
2022-12-23T23:31:41.032Z,10.40
2022-12-23T23:34:05.208Z,11.50
2022-12-23T23:36:33.175Z,10.40
2022-12-23T23:39:01.209Z,10.60
2022-12-23T23:41:29.199Z,10.60
2022-12-23T23:43:58.619Z,10.40
2022-12-23T23:46:26.690Z,11.10
2022-12-23T23:48:54.736Z,10.30
2022-12-23T23:51:22.731Z,10.30
2022-12-23T23:53:50.763Z,10.30
2022-12-23T23:56:24.814Z,10.40
2022-12-23T23:58:53.587Z,10.30
